createdAt,value
2019-03-15T00:00:09.775Z,961.15
2019-03-15T00:01:09.777Z,961.04
2019-03-15T00:02:09.760Z,961.09
2019-03-15T00:03:09.790Z,961.13
2019-03-15T00:04:09.757Z,961.18
2019-03-15T00:05:09.751Z,961.18
2019-03-15T00:06:09.748Z,961.19
2019-03-15T00:07:09.740Z,961.22
2019-03-15T00:08:09.772Z,961.30
2019-03-15T00:09:09.744Z,961.33
2019-03-15T00:10:09.728Z,961.29
2019-03-15T00:11:09.720Z,961.30
2019-03-15T00:12:09.760Z,961.34
2019-03-15T00:13:09.751Z,961.32
2019-03-15T00:14:09.711Z,961.35
2019-03-15T00:15:09.715Z,961.43
2019-03-15T00:16:09.703Z,961.40
2019-03-15T00:17:09.700Z,961.45
2019-03-15T00:18:09.746Z,961.35
2019-03-15T00:19:09.692Z,961.45
2019-03-15T00:20:09.690Z,961.52
2019-03-15T00:21:09.868Z,961.37
2019-03-15T00:22:09.681Z,961.42
2019-03-15T00:23:09.677Z,961.46
2019-03-15T00:24:09.704Z,961.55
2019-03-15T00:25:09.674Z,961.40
2019-03-15T00:26:09.662Z,961.58
2019-03-15T00:27:09.657Z,961.61
2019-03-15T00:28:09.648Z,961.57
2019-03-15T00:29:09.679Z,961.59
2019-03-15T00:30:10.220Z,961.52
2019-03-15T00:31:09.644Z,961.59
2019-03-15T00:32:09.635Z,961.71
2019-03-15T00:33:09.633Z,961.64
2019-03-15T00:34:09.658Z,961.69
2019-03-15T00:35:09.791Z,961.67
2019-03-15T00:36:09.618Z,961.65
2019-03-15T00:37:09.621Z,961.57
2019-03-15T00:38:09.608Z,961.69
2019-03-15T00:39:09.635Z,961.72
2019-03-15T00:40:09.603Z,961.71
2019-03-15T00:41:09.958Z,961.71
2019-03-15T00:42:09.606Z,961.78
2019-03-15T00:43:09.591Z,961.75
2019-03-15T00:44:09.612Z,961.79
2019-03-15T00:45:09.610Z,961.79
2019-03-15T00:46:09.579Z,961.78
2019-03-15T00:47:09.569Z,961.75
2019-03-15T00:48:09.567Z,961.75
2019-03-15T00:49:09.599Z,961.75
2019-03-15T00:50:09.562Z,961.75
2019-03-15T00:51:09.583Z,961.76
2019-03-15T00:52:09.551Z,961.75
2019-03-15T00:53:09.549Z,961.82
2019-03-15T00:54:09.571Z,961.80
2019-03-15T00:55:09.535Z,961.80
2019-03-15T00:56:09.536Z,961.82
2019-03-15T00:57:09.530Z,961.82
2019-03-15T00:58:09.526Z,961.82
2019-03-15T00:59:09.551Z,961.86
2019-03-15T01:00:09.514Z,961.85
2019-03-15T01:01:09.514Z,961.84
2019-03-15T01:02:09.503Z,961.87
2019-03-15T01:03:09.504Z,961.96
2019-03-15T01:04:09.791Z,961.97
2019-03-15T01:05:09.528Z,961.95
2019-03-15T01:06:09.492Z,961.92
2019-03-15T01:07:09.568Z,961.98
2019-03-15T01:08:09.499Z,961.96
2019-03-15T01:09:09.506Z,962.01
2019-03-15T01:10:09.501Z,961.97
2019-03-15T01:11:09.464Z,962.06
2019-03-15T01:12:09.463Z,961.98
2019-03-15T01:13:09.464Z,962.05
2019-03-15T01:14:09.487Z,961.97
2019-03-15T01:15:09.450Z,962.12
2019-03-15T01:16:09.494Z,962.10
2019-03-15T01:17:09.443Z,962.11
2019-03-15T01:18:09.438Z,962.10
2019-03-15T01:19:09.461Z,962.09
2019-03-15T01:20:09.433Z,962.15
2019-03-15T01:21:09.426Z,962.30
2019-03-15T01:22:09.427Z,962.28
2019-03-15T01:23:09.410Z,962.19
2019-03-15T01:24:09.446Z,962.10
2019-03-15T01:25:09.406Z,962.22
2019-03-15T01:26:09.405Z,962.27
2019-03-15T01:27:09.399Z,962.27
2019-03-15T01:28:09.392Z,962.25
2019-03-15T01:29:09.419Z,962.24
2019-03-15T01:30:09.415Z,962.24
2019-03-15T01:31:09.382Z,962.22
2019-03-15T01:32:09.378Z,962.25
2019-03-15T01:33:09.374Z,962.32
2019-03-15T01:34:09.397Z,962.34
2019-03-15T01:35:09.371Z,962.24
2019-03-15T01:36:09.386Z,962.28
2019-03-15T01:37:09.351Z,962.26
2019-03-15T01:38:09.368Z,962.33
2019-03-15T01:39:10.091Z,962.33
2019-03-15T01:40:09.341Z,962.34
2019-03-15T01:41:09.341Z,962.38
2019-03-15T01:42:09.334Z,962.31
2019-03-15T01:43:09.329Z,962.41
2019-03-15T01:44:09.325Z,962.38
2019-03-15T01:45:09.351Z,962.44
2019-03-15T01:46:09.319Z,962.46
2019-03-15T01:47:09.314Z,962.38
2019-03-15T01:48:09.308Z,962.40
2019-03-15T01:49:09.306Z,962.50
2019-03-15T01:50:09.330Z,962.53
2019-03-15T01:51:09.322Z,962.50
2019-03-15T01:52:09.289Z,962.46
2019-03-15T01:53:09.290Z,962.45
2019-03-15T01:54:09.285Z,962.52
2019-03-15T01:55:09.312Z,962.49
2019-03-15T01:56:09.274Z,962.56
2019-03-15T01:57:09.270Z,962.54
2019-03-15T01:58:09.269Z,962.57
2019-03-15T01:59:09.261Z,962.57
2019-03-15T02:00:09.284Z,962.55
2019-03-15T02:01:09.252Z,962.53
2019-03-15T02:02:09.248Z,962.54
2019-03-15T02:03:09.247Z,962.57
2019-03-15T02:04:09.252Z,962.64
2019-03-15T02:05:09.268Z,962.60
2019-03-15T02:06:09.235Z,962.66
2019-03-15T02:07:09.307Z,962.69
2019-03-15T02:08:09.220Z,962.67
2019-03-15T02:09:09.507Z,962.65
2019-03-15T02:10:09.265Z,962.70
2019-03-15T02:11:09.203Z,962.73
2019-03-15T02:12:09.205Z,962.70
2019-03-15T02:13:09.197Z,962.61
2019-03-15T02:14:09.192Z,962.63
2019-03-15T02:15:09.273Z,962.67
2019-03-15T02:16:09.190Z,962.72
2019-03-15T02:17:09.185Z,962.71
2019-03-15T02:18:09.176Z,962.73
2019-03-15T02:19:10.299Z,962.66
2019-03-15T02:20:09.206Z,962.67
2019-03-15T02:21:09.288Z,962.65
2019-03-15T02:22:09.156Z,962.72
2019-03-15T02:23:09.150Z,962.72
2019-03-15T02:24:09.153Z,962.75
2019-03-15T02:25:09.179Z,962.75
2019-03-15T02:26:09.167Z,962.72
2019-03-15T02:27:09.135Z,962.79
2019-03-15T02:28:09.138Z,962.87
2019-03-15T02:29:09.128Z,962.86
2019-03-15T02:30:09.301Z,962.81
2019-03-15T02:31:09.136Z,962.81
2019-03-15T02:32:09.118Z,962.76
2019-03-15T02:33:09.108Z,962.70
2019-03-15T02:34:09.107Z,962.86
2019-03-15T02:35:09.128Z,962.85
2019-03-15T02:36:09.133Z,962.79
2019-03-15T02:37:09.093Z,962.80
2019-03-15T02:38:09.089Z,962.87
2019-03-15T02:39:09.084Z,962.85
2019-03-15T02:40:09.113Z,962.91
2019-03-15T02:41:09.076Z,962.92
2019-03-15T02:42:09.077Z,962.86
2019-03-15T02:43:09.063Z,962.85
2019-03-15T02:44:09.091Z,962.90
2019-03-15T02:45:09.082Z,962.89
2019-03-15T02:46:09.051Z,962.93
2019-03-15T02:47:09.050Z,962.92
2019-03-15T02:48:09.051Z,962.92
2019-03-15T02:49:09.046Z,962.91
2019-03-15T02:50:09.064Z,962.91
2019-03-15T02:51:09.028Z,962.95
2019-03-15T02:52:09.024Z,962.90
2019-03-15T02:53:09.302Z,962.92
2019-03-15T02:54:09.024Z,962.95
2019-03-15T02:55:09.043Z,962.99
2019-03-15T02:56:09.006Z,962.96
2019-03-15T02:57:09.068Z,963.00
2019-03-15T02:58:09.000Z,963.03
2019-03-15T02:59:08.995Z,963.01
2019-03-15T03:00:08.990Z,963.09
2019-03-15T03:01:09.022Z,963.05
2019-03-15T03:02:08.975Z,963.12
2019-03-15T03:03:08.974Z,963.09
2019-03-15T03:04:08.973Z,963.08
2019-03-15T03:05:09.072Z,963.09
2019-03-15T03:06:08.996Z,963.15
2019-03-15T03:07:08.959Z,963.14
2019-03-15T03:08:08.959Z,963.17
2019-03-15T03:09:09.066Z,963.17
2019-03-15T03:10:08.950Z,963.14
2019-03-15T03:11:08.998Z,963.11
2019-03-15T03:12:08.940Z,963.12
2019-03-15T03:13:08.950Z,963.13
2019-03-15T03:14:09.245Z,963.19
2019-03-15T03:15:08.925Z,963.20
2019-03-15T03:16:08.955Z,963.21
2019-03-15T03:17:08.927Z,963.19
2019-03-15T03:18:08.923Z,963.29
2019-03-15T03:19:08.904Z,963.21
2019-03-15T03:20:08.908Z,963.30
2019-03-15T03:21:08.933Z,963.30
2019-03-15T03:22:09.289Z,963.25
2019-03-15T03:23:08.893Z,963.31
2019-03-15T03:24:08.885Z,963.30
2019-03-15T03:25:08.879Z,963.38
2019-03-15T03:26:08.913Z,963.30
2019-03-15T03:27:08.890Z,963.33
2019-03-15T03:28:08.871Z,963.30
2019-03-15T03:29:08.864Z,963.35
2019-03-15T03:30:08.862Z,963.39
2019-03-15T03:31:08.890Z,963.45
2019-03-15T03:32:08.858Z,963.48
2019-03-15T03:33:08.888Z,963.39
2019-03-15T03:34:08.997Z,963.43
2019-03-15T03:35:10.070Z,963.41
2019-03-15T03:36:08.872Z,963.40
2019-03-15T03:37:08.835Z,963.38
2019-03-15T03:38:08.835Z,963.31
2019-03-15T03:39:08.823Z,963.36
2019-03-15T03:40:08.824Z,963.36
2019-03-15T03:41:08.858Z,963.42
2019-03-15T03:42:08.828Z,963.39
2019-03-15T03:43:08.805Z,963.42
2019-03-15T03:44:08.798Z,963.33
2019-03-15T03:45:08.798Z,963.35
2019-03-15T03:46:08.822Z,963.42
2019-03-15T03:47:08.790Z,963.37
2019-03-15T03:48:08.787Z,963.45
2019-03-15T03:49:08.786Z,963.44
2019-03-15T03:50:08.779Z,963.41
2019-03-15T03:51:08.894Z,963.38
2019-03-15T03:52:08.926Z,963.40
2019-03-15T03:53:08.797Z,963.44
2019-03-15T03:54:08.762Z,963.48
2019-03-15T03:55:08.759Z,963.48
2019-03-15T03:56:08.787Z,963.46
2019-03-15T03:57:08.746Z,963.44
2019-03-15T03:58:08.747Z,963.48
2019-03-15T03:59:08.738Z,963.45
2019-03-15T04:00:08.740Z,963.51
2019-03-15T04:01:08.779Z,963.48
2019-03-15T04:02:08.726Z,963.51
2019-03-15T04:03:08.718Z,963.48
2019-03-15T04:04:08.718Z,963.50
2019-03-15T04:05:08.741Z,963.52
2019-03-15T04:06:08.733Z,963.54
2019-03-15T04:07:08.828Z,963.53
2019-03-15T04:08:08.710Z,963.56
2019-03-15T04:09:08.696Z,963.50
2019-03-15T04:10:08.696Z,963.51
2019-03-15T04:11:08.718Z,963.47
2019-03-15T04:12:08.690Z,963.52
2019-03-15T04:13:08.681Z,963.52
2019-03-15T04:14:08.676Z,963.55
2019-03-15T04:15:08.675Z,963.55
2019-03-15T04:16:08.699Z,963.57
2019-03-15T04:17:08.696Z,963.58
2019-03-15T04:18:08.683Z,963.47
2019-03-15T04:19:08.659Z,963.56
2019-03-15T04:20:08.652Z,963.60
2019-03-15T04:21:08.650Z,963.58
2019-03-15T04:22:08.676Z,963.62
2019-03-15T04:23:08.670Z,963.67
2019-03-15T04:24:08.741Z,963.60
2019-03-15T04:25:08.633Z,963.55
2019-03-15T04:26:08.640Z,963.55
2019-03-15T04:27:08.657Z,963.49
2019-03-15T04:28:08.622Z,963.58
2019-03-15T04:29:08.619Z,963.55
2019-03-15T04:30:09.099Z,963.62
2019-03-15T04:31:08.608Z,963.64
2019-03-15T04:32:08.628Z,963.56
2019-03-15T04:33:08.629Z,963.55
2019-03-15T04:34:08.601Z,963.52
2019-03-15T04:35:08.617Z,963.59
2019-03-15T04:36:08.584Z,963.60
2019-03-15T04:37:09.371Z,963.58
2019-03-15T04:38:08.587Z,963.71
2019-03-15T04:39:08.572Z,963.71
2019-03-15T04:40:08.569Z,963.66
2019-03-15T04:41:08.567Z,963.66
2019-03-15T04:42:08.594Z,963.54
2019-03-15T04:43:08.579Z,963.56
2019-03-15T04:44:08.551Z,963.53
2019-03-15T04:45:08.544Z,963.55
2019-03-15T04:46:08.542Z,963.55
2019-03-15T04:47:08.533Z,963.55
2019-03-15T04:48:08.562Z,963.57
2019-03-15T04:49:08.524Z,963.52
2019-03-15T04:50:08.521Z,963.56
2019-03-15T04:51:08.522Z,963.59
2019-03-15T04:52:08.546Z,963.62
2019-03-15T04:53:08.520Z,963.63
2019-03-15T04:54:08.532Z,963.64
2019-03-15T04:55:08.503Z,963.59
2019-03-15T04:56:08.488Z,963.59
2019-03-15T04:57:08.520Z,963.61
2019-03-15T04:58:08.482Z,963.64
2019-03-15T04:59:08.480Z,963.70
2019-03-15T05:00:08.478Z,963.75
2019-03-15T05:01:08.476Z,963.72
2019-03-15T05:02:08.497Z,963.74
2019-03-15T05:03:08.459Z,963.72
2019-03-15T05:04:08.456Z,963.78
2019-03-15T05:05:09.259Z,963.78
2019-03-15T05:06:08.450Z,963.80
2019-03-15T05:07:08.479Z,963.78
2019-03-15T05:08:08.440Z,963.84
2019-03-15T05:09:08.433Z,963.82
2019-03-15T05:10:08.432Z,963.79
2019-03-15T05:11:08.427Z,963.84
2019-03-15T05:12:08.447Z,963.80
2019-03-15T05:13:08.447Z,963.77
2019-03-15T05:14:08.407Z,963.71
2019-03-15T05:15:08.403Z,963.67
2019-03-15T05:16:08.399Z,963.66
2019-03-15T05:17:08.423Z,963.60
2019-03-15T05:18:08.388Z,963.61
2019-03-15T05:19:08.408Z,963.64
2019-03-15T05:20:08.420Z,963.63
2019-03-15T05:21:08.376Z,963.62
2019-03-15T05:22:08.397Z,963.58
2019-03-15T05:23:08.371Z,963.63
2019-03-15T05:24:08.359Z,963.61
2019-03-15T05:25:08.362Z,963.61
2019-03-15T05:26:08.353Z,963.61
2019-03-15T05:27:08.377Z,963.56
2019-03-15T05:28:08.343Z,963.59
2019-03-15T05:29:08.339Z,963.61
2019-03-15T05:30:08.342Z,963.58
2019-03-15T05:31:08.326Z,963.56
2019-03-15T05:32:08.353Z,963.61
2019-03-15T05:33:08.315Z,963.51
2019-03-15T05:34:08.317Z,963.58
2019-03-15T05:35:08.308Z,963.61
2019-03-15T05:36:08.314Z,963.64
2019-03-15T05:37:08.323Z,963.63
2019-03-15T05:38:08.325Z,963.64
2019-03-15T05:39:08.291Z,963.66
2019-03-15T05:40:08.285Z,963.65
2019-03-15T05:41:08.283Z,963.67
2019-03-15T05:42:08.280Z,963.68
2019-03-15T05:43:08.335Z,963.66
2019-03-15T05:44:08.318Z,963.67
2019-03-15T05:45:08.382Z,963.68
2019-03-15T05:46:08.256Z,963.69
2019-03-15T05:47:08.251Z,963.71
2019-03-15T05:48:08.279Z,963.69
2019-03-15T05:49:08.249Z,963.76
2019-03-15T05:50:08.272Z,963.74
2019-03-15T05:51:08.234Z,963.78
2019-03-15T05:52:08.231Z,963.75
2019-03-15T05:53:08.257Z,963.71
2019-03-15T05:54:08.244Z,963.70
2019-03-15T05:55:08.221Z,963.68
2019-03-15T05:56:08.210Z,963.74
2019-03-15T05:57:08.205Z,963.73
2019-03-15T05:58:08.259Z,963.84
2019-03-15T05:59:08.202Z,963.85
2019-03-15T06:00:08.222Z,963.89
2019-03-15T06:01:08.190Z,963.88
2019-03-15T06:02:08.187Z,963.87
2019-03-15T06:03:08.207Z,963.85
2019-03-15T06:04:08.173Z,963.91
2019-03-15T06:05:08.973Z,963.98
2019-03-15T06:06:08.167Z,964.02
2019-03-15T06:07:08.169Z,964.05
2019-03-15T06:08:08.189Z,964.03
2019-03-15T06:09:08.186Z,963.99
2019-03-15T06:10:08.145Z,964.06
2019-03-15T06:11:08.142Z,964.10
2019-03-15T06:12:08.142Z,964.06
2019-03-15T06:13:08.172Z,964.06
2019-03-15T06:14:08.140Z,964.08
2019-03-15T06:15:08.132Z,964.10
2019-03-15T06:16:08.121Z,964.10
2019-03-15T06:17:08.118Z,964.14
2019-03-15T06:18:08.138Z,964.18
2019-03-15T06:19:08.146Z,964.21
2019-03-15T06:20:08.103Z,964.24
2019-03-15T06:21:08.106Z,964.21
2019-03-15T06:22:08.093Z,964.27
2019-03-15T06:23:08.123Z,964.29
2019-03-15T06:24:08.090Z,964.31
2019-03-15T06:25:08.112Z,964.32
2019-03-15T06:26:08.101Z,964.34
2019-03-15T06:27:08.141Z,964.34
2019-03-15T06:28:08.073Z,964.35
2019-03-15T06:29:08.110Z,964.34
2019-03-15T06:30:08.065Z,964.36
2019-03-15T06:31:08.053Z,964.33
2019-03-15T06:32:08.055Z,964.36
2019-03-15T06:33:08.091Z,964.31
2019-03-15T06:34:08.047Z,964.31
2019-03-15T06:35:08.041Z,964.27
2019-03-15T06:36:08.037Z,964.26
2019-03-15T06:37:08.029Z,964.24
2019-03-15T06:38:08.061Z,964.26
2019-03-15T06:39:08.468Z,964.25
2019-03-15T06:40:08.021Z,964.23
2019-03-15T06:41:08.624Z,964.24
2019-03-15T06:42:08.011Z,964.26
2019-03-15T06:43:08.045Z,964.20
2019-03-15T06:44:08.008Z,964.21
2019-03-15T06:45:08.033Z,964.15
2019-03-15T06:46:08.001Z,964.13
2019-03-15T06:47:07.996Z,964.13
2019-03-15T06:48:08.020Z,964.17
2019-03-15T06:49:07.984Z,964.15
2019-03-15T06:50:07.983Z,964.11
2019-03-15T06:51:09.262Z,964.15
2019-03-15T06:52:07.973Z,964.14
2019-03-15T06:53:08.000Z,964.16
2019-03-15T06:54:11.618Z,964.13
2019-03-15T06:55:07.965Z,964.14
2019-03-15T06:56:07.961Z,964.11
2019-03-15T06:57:07.954Z,964.07
2019-03-15T06:58:07.989Z,964.06
2019-03-15T06:59:07.948Z,963.99
2019-03-15T07:00:07.947Z,964.05
2019-03-15T07:01:07.941Z,964.01
2019-03-15T07:02:07.939Z,963.95
2019-03-15T07:03:07.936Z,963.96
2019-03-15T07:04:07.960Z,963.98
2019-03-15T07:05:07.932Z,963.99
2019-03-15T07:06:07.936Z,963.91
2019-03-15T07:07:07.920Z,963.95
2019-03-15T07:08:07.928Z,963.94
2019-03-15T07:09:07.977Z,963.95
2019-03-15T07:10:07.909Z,963.96
2019-03-15T07:11:07.909Z,963.87
2019-03-15T07:12:09.718Z,963.93
2019-03-15T07:13:07.899Z,963.99
2019-03-15T07:14:07.930Z,963.97
2019-03-15T07:15:07.934Z,964.03
2019-03-15T07:16:07.891Z,964.06
2019-03-15T07:17:07.888Z,964.06
2019-03-15T07:18:08.039Z,964.07
2019-03-15T07:19:07.909Z,964.06
2019-03-15T07:20:07.878Z,964.08
2019-03-15T07:21:07.903Z,964.05
2019-03-15T07:22:07.871Z,964.05
2019-03-15T07:23:07.870Z,964.06
2019-03-15T07:24:07.897Z,964.08
2019-03-15T07:25:07.860Z,964.09
2019-03-15T07:26:07.853Z,964.15
2019-03-15T07:27:12.650Z,964.14
2019-03-15T07:28:07.852Z,964.12
2019-03-15T07:29:07.872Z,964.17
2019-03-15T07:30:07.839Z,964.13
2019-03-15T07:31:07.843Z,964.19
2019-03-15T07:32:07.840Z,964.05
2019-03-15T07:33:07.862Z,964.03
2019-03-15T07:34:07.860Z,963.93
2019-03-15T07:35:07.832Z,964.00
2019-03-15T07:36:07.827Z,964.01
2019-03-15T07:37:07.823Z,964.00
2019-03-15T07:38:07.824Z,964.02
2019-03-15T07:39:07.844Z,964.08
2019-03-15T07:40:07.847Z,964.04
2019-03-15T07:41:07.810Z,964.03
2019-03-15T07:42:07.803Z,964.09
2019-03-15T07:43:07.807Z,964.01
2019-03-15T07:44:07.875Z,963.99
2019-03-15T07:45:07.831Z,964.06
2019-03-15T07:46:07.800Z,964.05
2019-03-15T07:47:07.857Z,964.04
2019-03-15T07:48:21.354Z,964.07
2019-03-15T07:49:07.793Z,964.05
2019-03-15T07:50:07.815Z,963.97
2019-03-15T07:51:07.783Z,964.00
2019-03-15T07:52:07.789Z,964.02
2019-03-15T07:53:07.778Z,963.97
2019-03-15T07:54:07.807Z,963.96
2019-03-15T07:55:07.775Z,963.99
2019-03-15T07:56:07.778Z,963.96
2019-03-15T07:57:07.770Z,963.97
2019-03-15T07:58:07.766Z,963.97
2019-03-15T07:59:07.846Z,963.95
2019-03-15T08:00:07.762Z,964.03
2019-03-15T08:01:07.758Z,964.04
2019-03-15T08:02:07.754Z,964.03
2019-03-15T08:03:07.758Z,964.04
2019-03-15T08:04:16.831Z,963.96
2019-03-15T08:05:07.752Z,964.06
2019-03-15T08:06:07.741Z,963.99
2019-03-15T08:07:07.742Z,964.04
2019-03-15T08:08:07.743Z,964.02
2019-03-15T08:09:07.766Z,964.05
2019-03-15T08:10:07.740Z,964.09
2019-03-15T08:11:07.737Z,964.05
2019-03-15T08:12:07.734Z,964.12
2019-03-15T08:13:07.730Z,964.07
2019-03-15T08:14:07.722Z,964.06
2019-03-15T08:15:07.749Z,964.01
2019-03-15T08:16:07.724Z,964.09
2019-03-15T08:17:07.721Z,964.10
2019-03-15T08:18:07.713Z,964.12
2019-03-15T08:19:07.718Z,964.06
2019-03-15T08:20:07.738Z,964.05
2019-03-15T08:21:07.715Z,964.06
2019-03-15T08:22:07.773Z,964.05
2019-03-15T08:23:08.866Z,964.06
2019-03-15T08:24:07.702Z,964.04
2019-03-15T08:25:07.818Z,964.00
2019-03-15T08:26:07.701Z,964.02
2019-03-15T08:27:07.700Z,964.11
2019-03-15T08:28:07.700Z,964.10
2019-03-15T08:29:09.572Z,964.10
2019-03-15T08:30:07.722Z,964.09
2019-03-15T08:31:07.685Z,964.12
2019-03-15T08:32:07.720Z,964.13
2019-03-15T08:33:10.577Z,964.11
2019-03-15T08:34:07.674Z,964.05
2019-03-15T08:35:07.703Z,964.10
2019-03-15T08:36:07.673Z,964.19
2019-03-15T08:37:07.686Z,964.20
2019-03-15T08:38:07.675Z,964.15
2019-03-15T08:39:07.666Z,964.13
2019-03-15T08:40:07.693Z,964.03
2019-03-15T08:41:07.663Z,964.09
2019-03-15T08:42:07.657Z,964.08
2019-03-15T08:43:07.654Z,964.01
2019-03-15T08:44:07.662Z,964.02
2019-03-15T08:45:07.681Z,963.98
2019-03-15T08:46:07.681Z,963.91
2019-03-15T08:47:07.648Z,964.04
2019-03-15T08:48:07.641Z,963.91
2019-03-15T08:49:07.642Z,964.01
2019-03-15T08:50:07.683Z,964.04
2019-03-15T08:51:10.483Z,964.08
2019-03-15T08:52:07.633Z,964.09
2019-03-15T08:53:07.634Z,964.14
2019-03-15T08:54:07.630Z,964.04
2019-03-15T08:55:07.653Z,964.18
2019-03-15T08:56:07.625Z,964.19
2019-03-15T08:57:07.621Z,964.18
2019-03-15T08:58:13.870Z,964.24
2019-03-15T08:59:07.616Z,964.17
2019-03-15T09:00:07.712Z,964.17
2019-03-15T09:01:10.716Z,964.20
2019-03-15T09:02:07.673Z,964.24
2019-03-15T09:03:07.603Z,964.16
2019-03-15T09:04:07.608Z,964.17
2019-03-15T09:05:07.601Z,964.13
2019-03-15T09:06:07.631Z,964.11
2019-03-15T09:07:07.600Z,964.07
2019-03-15T09:08:07.596Z,964.05
2019-03-15T09:09:07.591Z,963.99
2019-03-15T09:10:21.320Z,963.97
2019-03-15T09:11:07.617Z,963.90
2019-03-15T09:12:07.591Z,963.87
2019-03-15T09:13:07.588Z,963.93
2019-03-15T09:14:07.582Z,963.87
2019-03-15T09:15:07.579Z,964.05
2019-03-15T09:16:07.605Z,964.05
2019-03-15T09:17:07.601Z,964.04
2019-03-15T09:18:07.568Z,964.04
2019-03-15T09:19:07.575Z,964.10
2019-03-15T09:20:07.564Z,964.08
2019-03-15T09:21:07.620Z,964.10
2019-03-15T09:22:07.561Z,964.13
2019-03-15T09:23:07.556Z,964.08
2019-03-15T09:24:07.556Z,964.10
2019-03-15T09:25:18.482Z,964.09
2019-03-15T09:26:10.307Z,964.14
2019-03-15T09:27:10.325Z,964.08
2019-03-15T09:28:07.546Z,964.10
2019-03-15T09:29:07.551Z,964.09
2019-03-15T09:30:07.543Z,964.05
2019-03-15T09:31:07.862Z,964.06
2019-03-15T09:32:09.306Z,964.01
2019-03-15T09:33:07.560Z,964.03
2019-03-15T09:34:07.528Z,963.97
2019-03-15T09:35:07.524Z,963.97
2019-03-15T09:36:07.553Z,963.91
2019-03-15T09:37:07.524Z,963.92
2019-03-15T09:38:10.312Z,963.97
2019-03-15T09:39:07.516Z,963.95
2019-03-15T09:40:07.512Z,963.93
2019-03-15T09:41:07.536Z,963.92
2019-03-15T09:42:07.517Z,963.92
2019-03-15T09:43:07.500Z,963.83
2019-03-15T09:44:07.513Z,963.91
2019-03-15T09:45:07.613Z,963.87
2019-03-15T09:46:07.521Z,963.85
2019-03-15T09:47:07.495Z,963.81
2019-03-15T09:48:07.592Z,963.77
2019-03-15T09:49:07.488Z,963.77
2019-03-15T09:50:20.616Z,963.76
2019-03-15T09:51:07.512Z,963.76
2019-03-15T09:52:07.479Z,963.71
2019-03-15T09:53:07.476Z,963.72
2019-03-15T09:54:07.471Z,963.73
2019-03-15T09:55:07.472Z,963.67
2019-03-15T09:56:07.501Z,963.66
2019-03-15T09:57:07.470Z,963.67
2019-03-15T09:58:07.466Z,963.67
2019-03-15T09:59:07.459Z,963.62
2019-03-15T10:00:07.555Z,963.64
2019-03-15T10:01:07.857Z,963.64
2019-03-15T10:02:07.984Z,963.58
2019-03-15T10:03:21.195Z,963.57
2019-03-15T10:04:07.446Z,963.54
2019-03-15T10:05:11.299Z,963.53
2019-03-15T10:06:14.753Z,963.55
2019-03-15T10:07:07.512Z,963.51
2019-03-15T10:08:07.483Z,963.53
2019-03-15T10:09:07.433Z,963.55
2019-03-15T10:10:13.429Z,963.53
2019-03-15T10:11:07.423Z,963.49
2019-03-15T10:12:07.449Z,963.49
2019-03-15T10:13:07.419Z,963.50
2019-03-15T10:14:07.417Z,963.43
2019-03-15T10:15:08.135Z,963.48
2019-03-15T10:16:07.416Z,963.42
2019-03-15T10:17:07.439Z,963.46
2019-03-15T10:18:07.492Z,963.40
2019-03-15T10:19:07.403Z,963.40
2019-03-15T10:20:07.404Z,963.37
2019-03-15T10:21:09.383Z,963.43
2019-03-15T10:22:07.423Z,963.43
2019-03-15T10:23:07.395Z,963.38
2019-03-15T10:24:07.389Z,963.32
2019-03-15T10:25:07.599Z,963.30
2019-03-15T10:26:07.387Z,963.31
2019-03-15T10:27:07.418Z,963.28
2019-03-15T10:28:07.407Z,963.29
2019-03-15T10:29:15.129Z,963.26
2019-03-15T10:30:07.376Z,963.29
2019-03-15T10:31:07.371Z,963.23
2019-03-15T10:32:07.400Z,963.20
2019-03-15T10:33:07.372Z,963.18
2019-03-15T10:34:07.364Z,963.20
2019-03-15T10:35:07.367Z,963.18
2019-03-15T10:36:07.359Z,963.19
2019-03-15T10:37:07.390Z,963.21
2019-03-15T10:38:07.359Z,963.13
2019-03-15T10:39:07.357Z,963.22
2019-03-15T10:40:07.361Z,963.16
2019-03-15T10:41:07.345Z,963.13
2019-03-15T10:42:07.377Z,963.13
2019-03-15T10:43:07.348Z,963.14
2019-03-15T10:44:07.348Z,963.01
2019-03-15T10:45:07.353Z,963.10
2019-03-15T10:46:07.335Z,963.11
2019-03-15T10:47:07.375Z,963.06
2019-03-15T10:48:08.279Z,963.08
2019-03-15T10:49:07.331Z,963.06
2019-03-15T10:50:07.328Z,963.03
2019-03-15T10:51:07.321Z,962.98
2019-03-15T10:52:07.355Z,962.94
2019-03-15T10:53:07.321Z,962.90
2019-03-15T10:54:07.328Z,962.96
2019-03-15T10:55:07.315Z,962.95
2019-03-15T10:56:07.316Z,962.86
2019-03-15T10:57:07.349Z,962.90
2019-03-15T10:58:07.306Z,962.86
2019-03-15T10:59:07.307Z,962.87
2019-03-15T11:00:07.300Z,962.71
2019-03-15T11:01:07.304Z,962.74
2019-03-15T11:02:07.335Z,962.81
2019-03-15T11:03:07.325Z,962.81
2019-03-15T11:04:07.299Z,962.85
2019-03-15T11:05:07.377Z,962.91
2019-03-15T11:06:07.291Z,962.88
2019-03-15T11:07:07.317Z,962.84
2019-03-15T11:08:07.337Z,962.83
2019-03-15T11:09:07.283Z,962.83
2019-03-15T11:10:07.283Z,962.80
2019-03-15T11:11:07.279Z,962.84
2019-03-15T11:12:07.279Z,962.75
2019-03-15T11:13:07.307Z,962.73
2019-03-15T11:14:07.284Z,962.67
2019-03-15T11:15:07.281Z,962.65
2019-03-15T11:16:07.270Z,962.58
2019-03-15T11:17:07.268Z,962.62
2019-03-15T11:18:07.286Z,962.61
2019-03-15T11:19:07.265Z,962.64
2019-03-15T11:20:07.262Z,962.61
2019-03-15T11:21:07.259Z,962.58
2019-03-15T11:22:07.259Z,962.63
2019-03-15T11:23:07.291Z,962.68
2019-03-15T11:24:07.255Z,962.66
2019-03-15T11:25:07.252Z,962.65
2019-03-15T11:26:13.431Z,962.65
2019-03-15T11:27:07.243Z,962.65
2019-03-15T11:28:07.270Z,962.66
2019-03-15T11:29:07.243Z,962.67
2019-03-15T11:30:07.237Z,962.69
2019-03-15T11:31:07.236Z,962.67
2019-03-15T11:32:07.238Z,962.62
2019-03-15T11:33:07.262Z,962.54
2019-03-15T11:34:07.237Z,962.57
2019-03-15T11:35:07.236Z,962.53
2019-03-15T11:36:07.222Z,962.48
2019-03-15T11:37:07.226Z,962.49
2019-03-15T11:38:07.251Z,962.45
2019-03-15T11:39:07.239Z,962.43
2019-03-15T11:40:07.219Z,962.40
2019-03-15T11:41:07.217Z,962.35
2019-03-15T11:42:07.231Z,962.41
2019-03-15T11:43:07.243Z,962.36
2019-03-15T11:44:07.239Z,962.37
2019-03-15T11:45:07.206Z,962.32
2019-03-15T11:46:07.207Z,962.38
2019-03-15T11:47:07.245Z,962.39
2019-03-15T11:48:09.008Z,962.36
2019-03-15T11:49:07.215Z,962.36
2019-03-15T11:50:07.207Z,962.28
2019-03-15T11:51:07.199Z,962.29
2019-03-15T11:52:07.202Z,962.30
2019-03-15T11:53:07.226Z,962.32
2019-03-15T11:54:07.194Z,962.31
2019-03-15T11:55:07.222Z,962.33
2019-03-15T11:56:07.193Z,962.29
2019-03-15T11:57:07.190Z,962.32
2019-03-15T11:58:07.217Z,962.31
2019-03-15T11:59:07.182Z,962.24
2019-03-15T12:00:07.185Z,962.25
2019-03-15T12:01:07.186Z,962.28
2019-03-15T12:02:10.497Z,962.32
2019-03-15T12:03:07.220Z,962.25
2019-03-15T12:04:07.172Z,962.23
2019-03-15T12:05:07.188Z,962.26
2019-03-15T12:06:07.173Z,962.27
2019-03-15T12:07:10.231Z,962.27
2019-03-15T12:08:07.198Z,962.24
2019-03-15T12:09:07.163Z,962.17
2019-03-15T12:10:07.166Z,962.11
2019-03-15T12:11:07.160Z,962.15
2019-03-15T12:12:07.159Z,962.11
2019-03-15T12:13:07.190Z,962.11
2019-03-15T12:14:07.157Z,962.13
2019-03-15T12:15:07.149Z,962.07
2019-03-15T12:16:07.144Z,962.07
2019-03-15T12:17:07.145Z,962.07
2019-03-15T12:18:08.534Z,962.02
2019-03-15T12:19:15.115Z,962.00
2019-03-15T12:20:07.149Z,961.94
2019-03-15T12:21:07.167Z,961.96
2019-03-15T12:22:08.166Z,961.92
2019-03-15T12:23:08.074Z,961.84
2019-03-15T12:24:07.170Z,961.90
2019-03-15T12:25:07.126Z,961.93
2019-03-15T12:26:09.931Z,961.96
2019-03-15T12:27:07.123Z,961.88
2019-03-15T12:28:07.151Z,961.78